sensor_id;sensor_type;location;lat;lon;timestamp;P1;durP1;ratioP1;P2;durP2;ratioP2
43803;SDS011;29430;52.924;-2.388;2024-01-30T00:00:28;30.25;;;12.50;;
43803;SDS011;29430;52.924;-2.388;2024-01-30T00:05:19;29.08;;;12.75;;
43803;SDS011;29430;52.924;-2.388;2024-01-30T00:10:11;34.80;;;12.15;;
43803;SDS011;29430;52.924;-2.388;2024-01-30T00:15:03;38.53;;;13.70;;
43803;SDS011;29430;52.924;-2.388;2024-01-30T00:19:56;26.17;;;11.90;;
43803;SDS011;29430;52.924;-2.388;2024-01-30T00:24:48;27.95;;;11.60;;
43803;SDS011;29430;52.924;-2.388;2024-01-30T00:29:40;28.90;;;11.65;;
43803;SDS011;29430;52.924;-2.388;2024-01-30T00:34:31;22.83;;;9.50;;
43803;SDS011;29430;52.924;-2.388;2024-01-30T00:39:23;24.08;;;10.90;;
43803;SDS011;29430;52.924;-2.388;2024-01-30T00:44:15;24.42;;;9.88;;
43803;SDS011;29430;52.924;-2.388;2024-01-30T00:49:06;30.83;;;9.73;;
43803;SDS011;29430;52.924;-2.388;2024-01-30T00:53:58;22.58;;;9.63;;
43803;SDS011;29430;52.924;-2.388;2024-01-30T00:58:50;27.45;;;9.13;;
43803;SDS011;29430;52.924;-2.388;2024-01-30T01:03:42;17.02;;;6.72;;
43803;SDS011;29430;52.924;-2.388;2024-01-30T01:08:35;1.42;;;0.30;;
43803;SDS011;29430;52.924;-2.388;2024-01-30T01:13:27;0.40;;;0.20;;
43803;SDS011;29430;52.924;-2.388;2024-01-30T01:18:19;0.43;;;0.13;;
43803;SDS011;29430;52.924;-2.388;2024-01-30T01:23:10;0.30;;;0.13;;
43803;SDS011;29430;52.924;-2.388;2024-01-30T01:28:02;0.50;;;0.20;;
43803;SDS011;29430;52.924;-2.388;2024-01-30T01:32:55;0.32;;;0.17;;
43803;SDS011;29430;52.924;-2.388;2024-01-30T01:37:48;0.30;;;0.20;;
43803;SDS011;29430;52.924;-2.388;2024-01-30T01:42:45;0.30;;;0.20;;
43803;SDS011;29430;52.924;-2.388;2024-01-30T01:47:37;0.28;;;0.13;;
43803;SDS011;29430;52.924;-2.388;2024-01-30T01:52:29;0.60;;;0.30;;
43803;SDS011;29430;52.924;-2.388;2024-01-30T01:57:21;0.60;;;0.20;;
43803;SDS011;29430;52.924;-2.388;2024-01-30T02:02:13;0.82;;;0.38;;
43803;SDS011;29430;52.924;-2.388;2024-01-30T02:07:07;1.00;;;0.30;;
43803;SDS011;29430;52.924;-2.388;2024-01-30T02:11:59;0.60;;;0.20;;
43803;SDS011;29430;52.924;-2.388;2024-01-30T02:16:51;0.90;;;0.30;;
43803;SDS011;29430;52.924;-2.388;2024-01-30T02:21:43;1.90;;;0.30;;
43803;SDS011;29430;52.924;-2.388;2024-01-30T02:26:36;0.60;;;0.30;;
43803;SDS011;29430;52.924;-2.388;2024-01-30T02:31:28;0.40;;;0.17;;
43803;SDS011;29430;52.924;-2.388;2024-01-30T02:36:20;0.43;;;0.13;;
43803;SDS011;29430;52.924;-2.388;2024-01-30T02:41:11;0.40;;;0.17;;
43803;SDS011;29430;52.924;-2.388;2024-01-30T02:46:03;0.43;;;0.20;;
43803;SDS011;29430;52.924;-2.388;2024-01-30T02:50:55;0.63;;;0.20;;
43803;SDS011;29430;52.924;-2.388;2024-01-30T02:55:46;1.42;;;0.20;;
43803;SDS011;29430;52.924;-2.388;2024-01-30T03:00:38;1.50;;;0.30;;
43803;SDS011;29430;52.924;-2.388;2024-01-30T03:05:30;0.95;;;0.20;;
43803;SDS011;29430;52.924;-2.388;2024-01-30T03:10:22;2.15;;;0.30;;
43803;SDS011;29430;52.924;-2.388;2024-01-30T03:15:14;2.85;;;0.40;;
43803;SDS011;29430;52.924;-2.388;2024-01-30T03:20:06;1.77;;;0.40;;
43803;SDS011;29430;52.924;-2.388;2024-01-30T03:24:58;2.13;;;0.30;;
43803;SDS011;29430;52.924;-2.388;2024-01-30T03:29:50;5.10;;;0.40;;
43803;SDS011;29430;52.924;-2.388;2024-01-30T03:34:41;1.42;;;0.30;;
43803;SDS011;29430;52.924;-2.388;2024-01-30T03:39:33;3.15;;;0.30;;
43803;SDS011;29430;52.924;-2.388;2024-01-30T03:44:25;1.75;;;0.30;;
43803;SDS011;29430;52.924;-2.388;2024-01-30T03:49:17;2.55;;;0.30;;
43803;SDS011;29430;52.924;-2.388;2024-01-30T03:54:08;3.03;;;0.20;;
43803;SDS011;29430;52.924;-2.388;2024-01-30T03:59:01;3.33;;;0.40;;
43803;SDS011;29430;52.924;-2.388;2024-01-30T04:03:54;2.80;;;0.10;;
43803;SDS011;29430;52.924;-2.388;2024-01-30T04:08:45;3.05;;;0.20;;
43803;SDS011;29430;52.924;-2.388;2024-01-30T04:13:37;5.43;;;0.25;;
43803;SDS011;29430;52.924;-2.388;2024-01-30T04:18:29;1.83;;;0.20;;
43803;SDS011;29430;52.924;-2.388;2024-01-30T04:23:21;1.77;;;0.13;;
43803;SDS011;29430;52.924;-2.388;2024-01-30T04:28:13;4.03;;;0.20;;
43803;SDS011;29430;52.924;-2.388;2024-01-30T04:33:05;1.23;;;0.10;;
43803;SDS011;29430;52.924;-2.388;2024-01-30T04:37:56;3.33;;;0.20;;
43803;SDS011;29430;52.924;-2.388;2024-01-30T04:42:48;1.52;;;0.20;;
43803;SDS011;29430;52.924;-2.388;2024-01-30T04:47:40;3.65;;;0.20;;
43803;SDS011;29430;52.924;-2.388;2024-01-30T04:52:31;1.45;;;0.20;;
43803;SDS011;29430;52.924;-2.388;2024-01-30T04:57:23;2.33;;;0.20;;
43803;SDS011;29430;52.924;-2.388;2024-01-30T05:02:15;3.55;;;0.40;;
43803;SDS011;29430;52.924;-2.388;2024-01-30T05:07:06;3.00;;;0.20;;
43803;SDS011;29430;52.924;-2.388;2024-01-30T05:11:58;1.95;;;0.30;;
43803;SDS011;29430;52.924;-2.388;2024-01-30T05:16:50;5.00;;;0.30;;
43803;SDS011;29430;52.924;-2.388;2024-01-30T05:21:42;2.90;;;0.30;;
43803;SDS011;29430;52.924;-2.388;2024-01-30T05:26:33;6.75;;;0.40;;
43803;SDS011;29430;52.924;-2.388;2024-01-30T05:31:25;4.68;;;0.40;;
43803;SDS011;29430;52.924;-2.388;2024-01-30T05:36:18;7.72;;;0.43;;
43803;SDS011;29430;52.924;-2.388;2024-01-30T05:41:10;2.03;;;0.10;;
43803;SDS011;29430;52.924;-2.388;2024-01-30T05:46:02;1.95;;;0.20;;
43803;SDS011;29430;52.924;-2.388;2024-01-30T05:50:53;0.80;;;0.20;;
43803;SDS011;29430;52.924;-2.388;2024-01-30T05:55:46;2.70;;;0.10;;
43803;SDS011;29430;52.924;-2.388;2024-01-30T06:00:38;3.65;;;0.30;;
43803;SDS011;29430;52.924;-2.388;2024-01-30T06:05:29;3.95;;;0.20;;
43803;SDS011;29430;52.924;-2.388;2024-01-30T06:10:21;7.43;;;0.20;;
43803;SDS011;29430;52.924;-2.388;2024-01-30T06:15:13;1.75;;;0.20;;
43803;SDS011;29430;52.924;-2.388;2024-01-30T06:20:05;2.42;;;0.20;;
43803;SDS011;29430;52.924;-2.388;2024-01-30T06:24:57;7.55;;;0.20;;
43803;SDS011;29430;52.924;-2.388;2024-01-30T06:29:49;5.50;;;0.30;;
43803;SDS011;29430;52.924;-2.388;2024-01-30T06:34:41;2.15;;;0.40;;
43803;SDS011;29430;52.924;-2.388;2024-01-30T06:39:35;1.92;;;0.35;;
43803;SDS011;29430;52.924;-2.388;2024-01-30T06:44:27;5.97;;;0.55;;
43803;SDS011;29430;52.924;-2.388;2024-01-30T06:49:23;4.85;;;0.30;;
43803;SDS011;29430;52.924;-2.388;2024-01-30T06:54:15;5.25;;;0.30;;
43803;SDS011;29430;52.924;-2.388;2024-01-30T06:59:06;3.80;;;0.20;;
43803;SDS011;29430;52.924;-2.388;2024-01-30T07:03:59;1.27;;;0.25;;
43803;SDS011;29430;52.924;-2.388;2024-01-30T07:08:51;3.53;;;0.20;;
43803;SDS011;29430;52.924;-2.388;2024-01-30T07:13:43;2.33;;;0.30;;
43803;SDS011;29430;52.924;-2.388;2024-01-30T07:18:35;4.82;;;0.93;;
43803;SDS011;29430;52.924;-2.388;2024-01-30T07:23:26;4.40;;;0.20;;
43803;SDS011;29430;52.924;-2.388;2024-01-30T07:28:18;2.15;;;0.20;;
43803;SDS011;29430;52.924;-2.388;2024-01-30T07:33:10;3.95;;;0.30;;
43803;SDS011;29430;52.924;-2.388;2024-01-30T07:38:02;3.38;;;0.22;;
43803;SDS011;29430;52.924;-2.388;2024-01-30T07:42:54;7.55;;;0.38;;
43803;SDS011;29430;52.924;-2.388;2024-01-30T07:47:46;1.55;;;0.20;;
43803;SDS011;29430;52.924;-2.388;2024-01-30T07:52:37;5.25;;;0.20;;
43803;SDS011;29430;52.924;-2.388;2024-01-30T07:57:30;4.40;;;0.30;;
43803;SDS011;29430;52.924;-2.388;2024-01-30T08:02:22;2.65;;;0.20;;
43803;SDS011;29430;52.924;-2.388;2024-01-30T08:07:14;5.15;;;0.20;;
43803;SDS011;29430;52.924;-2.388;2024-01-30T08:12:06;5.28;;;0.20;;
43803;SDS011;29430;52.924;-2.388;2024-01-30T08:16:57;4.05;;;0.20;;
43803;SDS011;29430;52.924;-2.388;2024-01-30T08:21:49;4.43;;;0.30;;
43803;SDS011;29430;52.924;-2.388;2024-01-30T08:26:41;2.58;;;0.20;;
43803;SDS011;29430;52.924;-2.388;2024-01-30T08:31:33;4.28;;;0.20;;
43803;SDS011;29430;52.924;-2.388;2024-01-30T08:36:25;2.10;;;0.17;;
43803;SDS011;29430;52.924;-2.388;2024-01-30T08:41:16;1.58;;;0.20;;
43803;SDS011;29430;52.924;-2.388;2024-01-30T08:46:09;1.73;;;0.10;;
43803;SDS011;29430;52.924;-2.388;2024-01-30T08:51:00;6.47;;;0.30;;
43803;SDS011;29430;52.924;-2.388;2024-01-30T08:55:52;0.70;;;0.10;;
43803;SDS011;29430;52.924;-2.388;2024-01-30T09:00:44;2.33;;;0.40;;
43803;SDS011;29430;52.924;-2.388;2024-01-30T09:05:36;6.85;;;0.63;;
43803;SDS011;29430;52.924;-2.388;2024-01-30T09:10:27;2.75;;;0.43;;
43803;SDS011;29430;52.924;-2.388;2024-01-30T09:15:19;2.38;;;0.40;;
43803;SDS011;29430;52.924;-2.388;2024-01-30T09:20:13;3.05;;;0.40;;
43803;SDS011;29430;52.924;-2.388;2024-01-30T09:25:06;2.67;;;0.30;;
43803;SDS011;29430;52.924;-2.388;2024-01-30T09:29:58;4.60;;;0.55;;
43803;SDS011;29430;52.924;-2.388;2024-01-30T09:34:49;5.07;;;0.90;;
43803;SDS011;29430;52.924;-2.388;2024-01-30T09:39:41;2.50;;;0.57;;
43803;SDS011;29430;52.924;-2.388;2024-01-30T09:44:34;1.67;;;0.30;;
43803;SDS011;29430;52.924;-2.388;2024-01-30T09:49:26;1.23;;;0.30;;
43803;SDS011;29430;52.924;-2.388;2024-01-30T09:54:18;3.47;;;0.40;;
43803;SDS011;29430;52.924;-2.388;2024-01-30T09:59:11;2.25;;;0.30;;
43803;SDS011;29430;52.924;-2.388;2024-01-30T10:04:03;3.13;;;0.20;;
43803;SDS011;29430;52.924;-2.388;2024-01-30T10:08:56;2.58;;;0.20;;
43803;SDS011;29430;52.924;-2.388;2024-01-30T10:13:48;5.15;;;0.50;;
43803;SDS011;29430;52.924;-2.388;2024-01-30T10:18:41;2.35;;;0.30;;
43803;SDS011;29430;52.924;-2.388;2024-01-30T10:23:35;2.53;;;0.57;;
43803;SDS011;29430;52.924;-2.388;2024-01-30T10:28:28;2.90;;;0.82;;
43803;SDS011;29430;52.924;-2.388;2024-01-30T10:33:21;2.50;;;0.40;;
43803;SDS011;29430;52.924;-2.388;2024-01-30T10:38:13;3.10;;;0.30;;
43803;SDS011;29430;52.924;-2.388;2024-01-30T10:43:07;2.53;;;0.50;;
43803;SDS011;29430;52.924;-2.388;2024-01-30T10:48:04;3.15;;;0.32;;
43803;SDS011;29430;52.924;-2.388;2024-01-30T10:52:58;2.80;;;0.22;;
43803;SDS011;29430;52.924;-2.388;2024-01-30T10:57:51;1.13;;;0.20;;
43803;SDS011;29430;52.924;-2.388;2024-01-30T11:02:44;2.78;;;0.10;;
43803;SDS011;29430;52.924;-2.388;2024-01-30T11:07:41;0.50;;;0.10;;
43803;SDS011;29430;52.924;-2.388;2024-01-30T11:12:37;2.17;;;0.22;;
43803;SDS011;29430;52.924;-2.388;2024-01-30T11:22:40;1.85;;;0.40;;
43803;SDS011;29430;52.924;-2.388;2024-01-30T11:27:32;1.35;;;0.38;;
43803;SDS011;29430;52.924;-2.388;2024-01-30T11:32:24;1.42;;;0.32;;
43803;SDS011;29430;52.924;-2.388;2024-01-30T11:37:16;2.17;;;0.40;;
43803;SDS011;29430;52.924;-2.388;2024-01-30T11:42:13;2.67;;;0.40;;
43803;SDS011;29430;52.924;-2.388;2024-01-30T11:47:05;2.15;;;0.40;;
43803;SDS011;29430;52.924;-2.388;2024-01-30T11:51:56;1.13;;;0.30;;
43803;SDS011;29430;52.924;-2.388;2024-01-30T11:56:48;1.02;;;0.30;;
43803;SDS011;29430;52.924;-2.388;2024-01-30T12:01:40;0.90;;;0.20;;
43803;SDS011;29430;52.924;-2.388;2024-01-30T12:06:32;3.58;;;0.35;;
43803;SDS011;29430;52.924;-2.388;2024-01-30T12:11:26;3.63;;;0.28;;
43803;SDS011;29430;52.924;-2.388;2024-01-30T12:16:19;0.98;;;0.20;;
43803;SDS011;29430;52.924;-2.388;2024-01-30T12:21:11;0.60;;;0.20;;
43803;SDS011;29430;52.924;-2.388;2024-01-30T12:26:03;1.02;;;0.20;;
43803;SDS011;29430;52.924;-2.388;2024-01-30T12:31:04;1.17;;;0.20;;
43803;SDS011;29430;52.924;-2.388;2024-01-30T12:35:56;1.25;;;0.20;;
43803;SDS011;29430;52.924;-2.388;2024-01-30T12:40:54;0.70;;;0.20;;
43803;SDS011;29430;52.924;-2.388;2024-01-30T12:45:47;1.75;;;0.20;;
43803;SDS011;29430;52.924;-2.388;2024-01-30T12:50:39;2.33;;;0.20;;
43803;SDS011;29430;52.924;-2.388;2024-01-30T12:55:30;0.95;;;0.10;;
43803;SDS011;29430;52.924;-2.388;2024-01-30T13:00:22;2.53;;;0.20;;
43803;SDS011;29430;52.924;-2.388;2024-01-30T13:05:14;1.60;;;0.35;;
43803;SDS011;29430;52.924;-2.388;2024-01-30T13:10:06;2.25;;;0.30;;
43803;SDS011;29430;52.924;-2.388;2024-01-30T13:14:59;0.75;;;0.17;;
43803;SDS011;29430;52.924;-2.388;2024-01-30T13:19:52;0.47;;;0.10;;
43803;SDS011;29430;52.924;-2.388;2024-01-30T13:24:45;0.95;;;0.10;;
43803;SDS011;29430;52.924;-2.388;2024-01-30T13:29:37;2.53;;;0.30;;
43803;SDS011;29430;52.924;-2.388;2024-01-30T13:34:29;2.08;;;0.20;;
43803;SDS011;29430;52.924;-2.388;2024-01-30T13:39:20;4.32;;;0.52;;
43803;SDS011;29430;52.924;-2.388;2024-01-30T13:44:15;3.55;;;0.30;;
43803;SDS011;29430;52.924;-2.388;2024-01-30T13:49:11;2.95;;;0.30;;
43803;SDS011;29430;52.924;-2.388;2024-01-30T13:54:03;3.08;;;0.30;;
43803;SDS011;29430;52.924;-2.388;2024-01-30T13:58:55;3.05;;;0.20;;
43803;SDS011;29430;52.924;-2.388;2024-01-30T14:03:49;2.60;;;0.30;;
43803;SDS011;29430;52.924;-2.388;2024-01-30T14:08:41;2.67;;;0.30;;
43803;SDS011;29430;52.924;-2.388;2024-01-30T14:13:38;5.07;;;0.70;;
43803;SDS011;29430;52.924;-2.388;2024-01-30T14:18:30;4.45;;;0.60;;
43803;SDS011;29430;52.924;-2.388;2024-01-30T14:23:23;3.53;;;0.30;;
43803;SDS011;29430;52.924;-2.388;2024-01-30T14:28:15;2.78;;;0.20;;
43803;SDS011;29430;52.924;-2.388;2024-01-30T14:33:07;1.80;;;0.10;;
43803;SDS011;29430;52.924;-2.388;2024-01-30T14:37:59;1.50;;;0.20;;
43803;SDS011;29430;52.924;-2.388;2024-01-30T14:42:51;5.35;;;0.10;;
43803;SDS011;29430;52.924;-2.388;2024-01-30T14:47:42;3.78;;;0.10;;
43803;SDS011;29430;52.924;-2.388;2024-01-30T14:52:34;5.90;;;0.40;;
43803;SDS011;29430;52.924;-2.388;2024-01-30T14:57:27;1.52;;;0.20;;
43803;SDS011;29430;52.924;-2.388;2024-01-30T15:02:21;3.50;;;0.30;;
43803;SDS011;29430;52.924;-2.388;2024-01-30T15:07:12;1.83;;;0.30;;
43803;SDS011;29430;52.924;-2.388;2024-01-30T15:12:15;3.65;;;0.20;;
43803;SDS011;29430;52.924;-2.388;2024-01-30T15:17:07;2.65;;;0.20;;
43803;SDS011;29430;52.924;-2.388;2024-01-30T15:21:58;1.23;;;0.10;;
43803;SDS011;29430;52.924;-2.388;2024-01-30T15:26:50;1.55;;;0.20;;
43803;SDS011;29430;52.924;-2.388;2024-01-30T15:31:43;1.85;;;0.20;;
43803;SDS011;29430;52.924;-2.388;2024-01-30T15:36:35;2.35;;;0.93;;
43803;SDS011;29430;52.924;-2.388;2024-01-30T15:41:27;3.05;;;0.10;;
43803;SDS011;29430;52.924;-2.388;2024-01-30T15:46:19;3.70;;;0.20;;
43803;SDS011;29430;52.924;-2.388;2024-01-30T15:51:11;3.17;;;0.20;;
43803;SDS011;29430;52.924;-2.388;2024-01-30T15:56:02;2.50;;;0.20;;
43803;SDS011;29430;52.924;-2.388;2024-01-30T16:00:55;1.83;;;0.20;;
43803;SDS011;29430;52.924;-2.388;2024-01-30T16:05:46;2.85;;;0.20;;
43803;SDS011;29430;52.924;-2.388;2024-01-30T16:10:38;4.05;;;0.30;;
43803;SDS011;29430;52.924;-2.388;2024-01-30T16:15:30;2.00;;;0.20;;
43803;SDS011;29430;52.924;-2.388;2024-01-30T16:20:22;2.03;;;0.20;;
43803;SDS011;29430;52.924;-2.388;2024-01-30T16:25:13;2.40;;;0.30;;
43803;SDS011;29430;52.924;-2.388;2024-01-30T16:30:09;4.63;;;0.70;;
43803;SDS011;29430;52.924;-2.388;2024-01-30T16:35:01;3.13;;;0.60;;
43803;SDS011;29430;52.924;-2.388;2024-01-30T16:39:52;6.38;;;0.90;;
43803;SDS011;29430;52.924;-2.388;2024-01-30T16:44:44;3.53;;;0.60;;
43803;SDS011;29430;52.924;-2.388;2024-01-30T16:49:37;1.88;;;0.50;;
43803;SDS011;29430;52.924;-2.388;2024-01-30T16:54:28;2.47;;;0.50;;
43803;SDS011;29430;52.924;-2.388;2024-01-30T16:59:20;4.57;;;0.98;;
43803;SDS011;29430;52.924;-2.388;2024-01-30T17:04:12;3.47;;;0.50;;
43803;SDS011;29430;52.924;-2.388;2024-01-30T17:09:04;2.65;;;0.35;;
43803;SDS011;29430;52.924;-2.388;2024-01-30T17:13:56;3.13;;;0.20;;
43803;SDS011;29430;52.924;-2.388;2024-01-30T17:18:48;1.80;;;0.40;;
43803;SDS011;29430;52.924;-2.388;2024-01-30T17:23:40;5.80;;;1.52;;
43803;SDS011;29430;52.924;-2.388;2024-01-30T17:28:32;8.73;;;1.70;;
43803;SDS011;29430;52.924;-2.388;2024-01-30T17:33:23;12.88;;;4.60;;
43803;SDS011;29430;52.924;-2.388;2024-01-30T17:38:15;10.45;;;3.58;;
43803;SDS011;29430;52.924;-2.388;2024-01-30T17:43:07;8.00;;;2.25;;
43803;SDS011;29430;52.924;-2.388;2024-01-30T17:47:59;4.55;;;1.08;;
43803;SDS011;29430;52.924;-2.388;2024-01-30T17:52:51;6.55;;;1.33;;
43803;SDS011;29430;52.924;-2.388;2024-01-30T17:57:45;6.80;;;2.20;;
43803;SDS011;29430;52.924;-2.388;2024-01-30T18:02:36;13.15;;;4.25;;
43803;SDS011;29430;52.924;-2.388;2024-01-30T18:07:28;9.05;;;3.05;;
43803;SDS011;29430;52.924;-2.388;2024-01-30T18:12:20;14.23;;;4.72;;
43803;SDS011;29430;52.924;-2.388;2024-01-30T18:17:12;13.68;;;4.85;;
43803;SDS011;29430;52.924;-2.388;2024-01-30T18:22:04;15.32;;;5.70;;
43803;SDS011;29430;52.924;-2.388;2024-01-30T18:26:56;13.27;;;5.03;;
43803;SDS011;29430;52.924;-2.388;2024-01-30T18:31:47;14.30;;;5.35;;
43803;SDS011;29430;52.924;-2.388;2024-01-30T18:36:39;12.57;;;4.22;;
43803;SDS011;29430;52.924;-2.388;2024-01-30T18:41:33;22.60;;;10.40;;
43803;SDS011;29430;52.924;-2.388;2024-01-30T18:46:24;15.95;;;7.57;;
43803;SDS011;29430;52.924;-2.388;2024-01-30T18:51:16;13.95;;;6.57;;
43803;SDS011;29430;52.924;-2.388;2024-01-30T18:56:08;23.65;;;11.73;;
43803;SDS011;29430;52.924;-2.388;2024-01-30T19:01:00;17.02;;;7.38;;
43803;SDS011;29430;52.924;-2.388;2024-01-30T19:05:52;10.50;;;5.25;;
43803;SDS011;29430;52.924;-2.388;2024-01-30T19:10:45;16.30;;;4.07;;
43803;SDS011;29430;52.924;-2.388;2024-01-30T19:15:37;10.20;;;3.97;;
43803;SDS011;29430;52.924;-2.388;2024-01-30T19:20:29;8.60;;;4.45;;
43803;SDS011;29430;52.924;-2.388;2024-01-30T19:25:21;10.82;;;3.92;;
43803;SDS011;29430;52.924;-2.388;2024-01-30T19:30:13;4.53;;;2.03;;
43803;SDS011;29430;52.924;-2.388;2024-01-30T19:35:05;5.43;;;1.90;;
43803;SDS011;29430;52.924;-2.388;2024-01-30T19:39:57;10.98;;;2.85;;
43803;SDS011;29430;52.924;-2.388;2024-01-30T19:44:49;12.55;;;4.65;;
43803;SDS011;29430;52.924;-2.388;2024-01-30T19:49:40;12.32;;;3.42;;
43803;SDS011;29430;52.924;-2.388;2024-01-30T19:54:33;7.35;;;2.38;;
43803;SDS011;29430;52.924;-2.388;2024-01-30T19:59:25;18.02;;;7.20;;
43803;SDS011;29430;52.924;-2.388;2024-01-30T20:04:17;8.05;;;2.50;;
43803;SDS011;29430;52.924;-2.388;2024-01-30T20:09:09;7.00;;;2.75;;
43803;SDS011;29430;52.924;-2.388;2024-01-30T20:14:01;7.68;;;2.45;;
43803;SDS011;29430;52.924;-2.388;2024-01-30T20:18:53;7.55;;;2.60;;
43803;SDS011;29430;52.924;-2.388;2024-01-30T20:23:44;9.50;;;3.72;;
43803;SDS011;29430;52.924;-2.388;2024-01-30T20:28:36;4.32;;;2.13;;
43803;SDS011;29430;52.924;-2.388;2024-01-30T20:33:28;6.30;;;1.75;;
43803;SDS011;29430;52.924;-2.388;2024-01-30T20:38:20;5.00;;;1.60;;
43803;SDS011;29430;52.924;-2.388;2024-01-30T20:43:12;9.65;;;2.75;;
43803;SDS011;29430;52.924;-2.388;2024-01-30T20:48:04;5.50;;;1.42;;
43803;SDS011;29430;52.924;-2.388;2024-01-30T20:52:57;7.03;;;1.30;;
43803;SDS011;29430;52.924;-2.388;2024-01-30T20:57:49;5.63;;;1.65;;
43803;SDS011;29430;52.924;-2.388;2024-01-30T21:02:40;13.20;;;3.78;;
43803;SDS011;29430;52.924;-2.388;2024-01-30T21:07:33;7.63;;;2.50;;
43803;SDS011;29430;52.924;-2.388;2024-01-30T21:12:25;7.55;;;2.08;;
43803;SDS011;29430;52.924;-2.388;2024-01-30T21:17:16;5.88;;;1.73;;
43803;SDS011;29430;52.924;-2.388;2024-01-30T21:22:08;6.97;;;1.80;;
43803;SDS011;29430;52.924;-2.388;2024-01-30T21:27:00;6.70;;;1.27;;
43803;SDS011;29430;52.924;-2.388;2024-01-30T21:31:52;3.35;;;0.60;;
43803;SDS011;29430;52.924;-2.388;2024-01-30T21:36:43;6.88;;;0.82;;
43803;SDS011;29430;52.924;-2.388;2024-01-30T21:41:35;2.50;;;0.90;;
43803;SDS011;29430;52.924;-2.388;2024-01-30T21:46:27;3.08;;;0.57;;
43803;SDS011;29430;52.924;-2.388;2024-01-30T21:51:19;3.58;;;0.55;;
43803;SDS011;29430;52.924;-2.388;2024-01-30T21:56:11;3.72;;;0.60;;
43803;SDS011;29430;52.924;-2.388;2024-01-30T22:01:03;3.40;;;0.40;;
43803;SDS011;29430;52.924;-2.388;2024-01-30T22:05:55;2.22;;;0.47;;
43803;SDS011;29430;52.924;-2.388;2024-01-30T22:10:46;2.55;;;0.57;;
43803;SDS011;29430;52.924;-2.388;2024-01-30T22:15:38;2.67;;;0.63;;
43803;SDS011;29430;52.924;-2.388;2024-01-30T22:20:31;3.05;;;0.50;;
43803;SDS011;29430;52.924;-2.388;2024-01-30T22:25:23;2.22;;;0.50;;
43803;SDS011;29430;52.924;-2.388;2024-01-30T22:30:16;4.40;;;0.90;;
43803;SDS011;29430;52.924;-2.388;2024-01-30T22:35:08;3.80;;;1.02;;
43803;SDS011;29430;52.924;-2.388;2024-01-30T22:40:03;7.88;;;1.83;;
43803;SDS011;29430;52.924;-2.388;2024-01-30T22:44:55;5.28;;;1.88;;
43803;SDS011;29430;52.924;-2.388;2024-01-30T22:49:47;8.60;;;1.27;;
43803;SDS011;29430;52.924;-2.388;2024-01-30T22:54:38;9.98;;;1.45;;
43803;SDS011;29430;52.924;-2.388;2024-01-30T22:59:30;6.43;;;1.17;;
43803;SDS011;29430;52.924;-2.388;2024-01-30T23:04:22;9.82;;;2.13;;
43803;SDS011;29430;52.924;-2.388;2024-01-30T23:09:14;7.88;;;1.25;;
43803;SDS011;29430;52.924;-2.388;2024-01-30T23:14:08;4.85;;;1.15;;
43803;SDS011;29430;52.924;-2.388;2024-01-30T23:19:00;6.28;;;0.82;;
43803;SDS011;29430;52.924;-2.388;2024-01-30T23:23:52;5.07;;;0.80;;
43803;SDS011;29430;52.924;-2.388;2024-01-30T23:28:44;5.55;;;0.75;;
43803;SDS011;29430;52.924;-2.388;2024-01-30T23:33:37;6.80;;;0.80;;
43803;SDS011;29430;52.924;-2.388;2024-01-30T23:38:28;8.52;;;0.85;;
43803;SDS011;29430;52.924;-2.388;2024-01-30T23:43:20;5.88;;;1.00;;
43803;SDS011;29430;52.924;-2.388;2024-01-30T23:48:12;4.38;;;0.90;;
43803;SDS011;29430;52.924;-2.388;2024-01-30T23:53:04;4.78;;;0.50;;
43803;SDS011;29430;52.924;-2.388;2024-01-30T23:57:57;2.50;;;0.70;;
